CheckWX is a tool to help pilots better visualize weather data.  It is not intended as a substitute for an official pre-flight weather briefing.

18:04:10 UTC

KCLL METAR
Easterwood Field Airport
College Station, Texas, USA
Current

8 mins ago

KCLL 241756Z 04009KT 2 1/2SM VCTS RA BR FEW006 BKN035 OVC110 19/19 A2985 RMK AO2 LTG DSNT ALQDS PRESFR P0000 T01940194
Observed
Apr-24 @ 17:56 UTC
Wind
  • 040° at 9 KTS
Visibility
2 1/2 SM
Flight Rules
IFR
Conditions
Area Thunderstorm, Rain, Mist
Cloud Levels
  • Few at 600' AGL
  • Broken at 3,500' AGL
  • Overcast at 11,000' AGL
Temperature
19°C / 66°F
Dewpoint
19°C / 66°F
Humidity
100%
Altimeter
29.85" Hg
Pressure
1010.82 hPa
Current Rain
0.01"
Previous

28 mins ago

KCLL 241736Z 01007KT 1 1/4SM VCTS +RA BR SCT005 BKN017 OVC038 19/19 A2991 RMK AO2 LTG DSNT ALQDS TSE30 P0035 T01890189
Observed
Apr-24 @ 17:36 UTC
Wind
  • 010° at 7 KTS
Visibility
1 1/4 SM
Flight Rules
IFR
Conditions
Area Thunderstorm, Heavy Rain, Mist
Cloud Levels
  • Scattered at 500' AGL
  • Broken at 1,700' AGL
  • Overcast at 3,800' AGL
Temperature
19°C / 66°F
Dewpoint
19°C / 66°F
Humidity
100%
Altimeter
29.91" Hg
Pressure
1012.92 hPa
Current Rain
0.35"
Previous

51 mins ago

KCLL 241713Z 00000KT 1 3/4SM +TSRA BR SCT008 BKN023 OVC040 19/19 A2992 RMK AO2 LTG DSNT ALQDS P0009 T01940194
Observed
Apr-24 @ 17:13 UTC
Visibility
1 3/4 SM
Flight Rules
IFR
Conditions
Heavy Thunderstorm, Heavy Rain, Mist
Cloud Levels
  • Scattered at 800' AGL
  • Broken at 2,300' AGL
  • Overcast at 4,000' AGL
Temperature
19°C / 66°F
Dewpoint
19°C / 66°F
Humidity
100%
Altimeter
29.92" Hg
Pressure
1013.22 hPa
Current Rain
0.09"